Time;durP1;ratioP1;P1;durP2;ratioP2;P2;SDS_P1;SDS_P2;PMS_P1;PMS_P2;Temp;Humidity;BMP_temperature;BMP_pressure;BME280_temperature;BME280_humidity;BME280_pressure;Samples;Min_cycle;Max_cycle;Signal;HPM_P1;HPM_P2
2023/03/06 00:00:28;;;;;;;43.33;21.87;;;;;;;;;;5075393;28;20218;-46
2023/03/06 00:03:13;;;;;;;46.13;23.00;;;;;;;;;;5075703;28;20184;-44
2023/03/06 00:05:41;;;;;;;63.27;27.83;;;;;;;;;;5074766;28;20530;-44
2023/03/06 00:08:08;;;;;;;54.30;27.47;;;;;;;;;;5074818;28;20203;-44
2023/03/06 00:10:36;;;;;;;63.10;29.40;;;;;;;;;;5074867;28;20211;-44
2023/03/06 00:13:06;;;;;;;68.50;29.60;;;;;;;;;;5074772;28;20199;-43
2023/03/06 00:15:34;;;;;;;69.57;30.93;;;;;;;;;;5074736;28;20230;-44
2023/03/06 00:18:04;;;;;;;70.03;32.13;;;;;;;;;;5074861;28;20232;-44
2023/03/06 00:20:33;;;;;;;66.90;30.20;;;;;;;;;;5075179;28;20655;-44
2023/03/06 00:23:00;;;;;;;71.23;32.80;;;;;;;;;;5074802;28;20654;-44
2023/03/06 00:25:27;;;;;;;83.87;36.13;;;;;;;;;;5074836;28;20203;-44
2023/03/06 00:27:54;;;;;;;79.90;32.60;;;;;;;;;;5074609;28;20210;-44
2023/03/06 00:30:23;;;;;;;74.90;32.60;;;;;;;;;;5073947;28;20261;-43
2023/03/06 00:32:52;;;;;;;66.97;30.90;;;;;;;;;;5074793;28;20218;-44
2023/03/06 00:35:19;;;;;;;77.43;33.13;;;;;;;;;;5074382;28;20234;-44
2023/03/06 00:37:47;;;;;;;72.47;31.60;;;;;;;;;;5074438;28;20638;-44
2023/03/06 00:40:17;;;;;;;69.93;30.13;;;;;;;;;;5075334;28;20327;-44
2023/03/06 00:42:44;;;;;;;76.63;32.60;;;;;;;;;;5074818;28;20203;-44
2023/03/06 00:45:12;;;;;;;81.63;37.73;;;;;;;;;;5073954;28;20294;-44
2023/03/06 00:47:39;;;;;;;83.10;39.00;;;;;;;;;;5078671;28;20209;-44
2023/03/06 00:50:08;;;;;;;76.80;35.20;;;;;;;;;;5077545;28;20578;-44
2023/03/06 00:52:35;;;;;;;70.27;32.27;;;;;;;;;;5078838;28;20199;-44
2023/03/06 00:55:04;;;;;;;76.37;32.90;;;;;;;;;;5077633;28;20276;-43
2023/03/06 00:57:31;;;;;;;71.60;32.80;;;;;;;;;;5078930;28;20213;-43
2023/03/06 00:59:58;;;;;;;72.50;31.60;;;;;;;;;;5078847;28;20202;-44
2023/03/06 01:02:25;;;;;;;71.80;29.87;;;;;;;;;;5098461;28;20199;-43
2023/03/06 01:04:53;;;;;;;63.87;29.27;;;;;;;;;;5097689;28;20199;-44
2023/03/06 01:07:20;;;;;;;66.27;28.90;;;;;;;;;;5098370;28;20214;-43
2023/03/06 01:09:49;;;;;;;62.40;29.37;;;;;;;;;;5098664;28;20206;-43
2023/03/06 01:12:16;;;;;;;65.40;29.90;;;;;;;;;;5098592;28;20205;-43
2023/03/06 01:14:44;;;;;;;61.27;30.43;;;;;;;;;;5098290;28;20202;-43
2023/03/06 01:17:11;;;;;;;60.40;27.87;;;;;;;;;;5098372;28;20235;-44
2023/03/06 01:19:38;;;;;;;57.87;27.93;;;;;;;;;;5098242;28;20234;-44
2023/03/06 01:22:05;;;;;;;57.47;26.80;;;;;;;;;;5098373;28;20202;-44
2023/03/06 01:24:33;;;;;;;64.90;27.97;;;;;;;;;;5098530;28;20213;-43
2023/03/06 01:27:00;;;;;;;59.07;26.20;;;;;;;;;;5097199;28;20752;-43
2023/03/06 01:29:27;;;;;;;59.33;26.20;;;;;;;;;;5097454;28;20236;-43
2023/03/06 01:31:54;;;;;;;56.57;27.03;;;;;;;;;;5097979;28;20202;-44
2023/03/06 01:34:22;;;;;;;55.30;24.73;;;;;;;;;;5097835;28;20198;-44
2023/03/06 01:36:49;;;;;;;99.33;37.70;;;;;;;;;;5096924;28;20665;-43
2023/03/06 01:39:16;;;;;;;67.33;30.27;;;;;;;;;;5098084;28;20514;-43
2023/03/06 01:41:43;;;;;;;68.67;31.27;;;;;;;;;;5097879;28;20260;-44
2023/03/06 01:44:12;;;;;;;54.90;28.43;;;;;;;;;;5097807;28;20219;-44
2023/03/06 01:46:41;;;;;;;56.67;27.33;;;;;;;;;;5097612;28;20210;-44
2023/03/06 01:49:34;;;;;;;54.23;24.17;;;;;;;;;;5097570;28;20684;-44
2023/03/06 01:52:05;;;;;;;55.30;25.57;;;;;;;;;;5097932;28;20214;-44
2023/03/06 01:54:41;;;;;;;52.90;25.57;;;;;;;;;;5097027;28;20195;-44
2023/03/06 01:57:14;;;;;;;55.13;25.37;;;;;;;;;;5095658;28;20228;-43
2023/03/06 01:59:41;;;;;;;50.07;25.13;;;;;;;;;;5096680;28;20586;-43
2023/03/06 02:02:10;;;;;;;50.53;25.77;;;;;;;;;;5096434;28;20199;-43
2023/03/06 02:04:41;;;;;;;63.53;28.73;;;;;;;;;;5097241;28;20275;-44
2023/03/06 02:07:08;;;;;;;55.97;28.57;;;;;;;;;;5096586;28;20194;-44
2023/03/06 02:09:37;;;;;;;55.67;27.77;;;;;;;;;;5097298;28;20206;-44
2023/03/06 02:12:10;;;;;;;47.90;23.83;;;;;;;;;;5097154;28;20297;-43
2023/03/06 02:14:38;;;;;;;55.20;24.40;;;;;;;;;;5096788;28;20207;-44
2023/03/06 02:17:08;;;;;;;47.33;24.13;;;;;;;;;;5096567;28;20261;-43
2023/03/06 02:20:01;;;;;;;52.13;23.97;;;;;;;;;;5095910;28;20619;-44
2023/03/06 02:22:55;;;;;;;48.47;23.03;;;;;;;;;;5097824;28;20217;-43
2023/03/06 02:25:43;;;;;;;50.93;22.90;;;;;;;;;;5095461;28;20264;-43
2023/03/06 02:28:15;;;;;;;51.53;22.70;;;;;;;;;;5078741;28;20531;-43
2023/03/06 02:30:44;;;;;;;80.77;34.30;;;;;;;;;;5085833;28;20203;-44
2023/03/06 02:33:17;;;;;;;61.87;28.43;;;;;;;;;;5075614;28;20203;-43
2023/03/06 02:35:59;;;;;;;54.40;28.37;;;;;;;;;;5076258;28;20231;-43
2023/03/06 02:38:31;;;;;;;58.20;26.87;;;;;;;;;;5076733;28;20209;-44
2023/03/06 02:41:00;;;;;;;50.33;25.37;;;;;;;;;;5076360;28;20634;-43
2023/03/06 02:43:32;;;;;;;62.37;27.77;;;;;;;;;;5075587;28;20214;-44
2023/03/06 02:45:59;;;;;;;57.03;27.10;;;;;;;;;;5075550;28;20203;-43
2023/03/06 02:48:26;;;;;;;58.80;26.50;;;;;;;;;;5075522;28;20634;-43
2023/03/06 02:50:54;;;;;;;59.87;27.83;;;;;;;;;;5076126;28;20203;-44
2023/03/06 02:53:21;;;;;;;55.07;27.00;;;;;;;;;;5075441;28;20199;-43
2023/03/06 02:55:48;;;;;;;55.53;26.63;;;;;;;;;;5075950;28;20754;-44
2023/03/06 02:58:18;;;;;;;63.23;30.33;;;;;;;;;;5076003;28;20231;-44
2023/03/06 03:00:47;;;;;;;72.63;34.43;;;;;;;;;;5075634;28;20199;-43
2023/03/06 03:03:14;;;;;;;73.90;34.20;;;;;;;;;;5075805;28;20203;-44
2023/03/06 03:05:42;;;;;;;58.93;28.57;;;;;;;;;;5076042;28;20207;-44
2023/03/06 03:08:20;;;;;;;53.30;26.60;;;;;;;;;;5074990;28;20510;-44
2023/03/06 03:10:51;;;;;;;53.83;27.20;;;;;;;;;;5076313;28;20222;-43
2023/03/06 03:13:18;;;;;;;55.60;27.57;;;;;;;;;;5074938;28;20203;-44
2023/03/06 03:16:07;;;;;;;58.17;27.33;;;;;;;;;;5074909;28;20234;-45
2023/03/06 03:18:34;;;;;;;54.07;25.57;;;;;;;;;;5075823;28;20567;-44
2023/03/06 03:21:09;;;;;;;51.53;26.37;;;;;;;;;;5074947;28;20211;-44
2023/03/06 03:23:36;;;;;;;58.37;27.43;;;;;;;;;;5075572;28;20633;-43
2023/03/06 03:26:11;;;;;;;76.83;34.93;;;;;;;;;;5075616;28;20199;-44
2023/03/06 03:28:41;;;;;;;61.80;32.23;;;;;;;;;;5075339;28;20199;-44
2023/03/06 03:31:11;;;;;;;53.43;28.20;;;;;;;;;;5074971;28;20550;-44
2023/03/06 03:33:39;;;;;;;52.63;26.40;;;;;;;;;;5074389;28;20207;-44
2023/03/06 03:36:08;;;;;;;52.87;26.70;;;;;;;;;;5074857;28;20607;-43
2023/03/06 03:38:39;;;;;;;56.07;26.70;;;;;;;;;;5074621;28;20199;-44
2023/03/06 03:41:06;;;;;;;57.73;26.60;;;;;;;;;;5075200;28;20199;-44
2023/03/06 03:43:34;;;;;;;52.70;26.20;;;;;;;;;;5076008;28;20203;-44
2023/03/06 03:46:01;;;;;;;51.30;25.93;;;;;;;;;;5074182;28;20219;-43
2023/03/06 03:48:29;;;;;;;49.40;25.03;;;;;;;;;;5074681;28;20649;-44
2023/03/06 03:51:23;;;;;;;60.63;28.47;;;;;;;;;;5075372;28;20530;-43
2023/03/06 03:53:55;;;;;;;55.80;26.60;;;;;;;;;;5053590;28;20294;-44
2023/03/06 03:56:24;;;;;;;57.53;27.80;;;;;;;;;;5036906;28;20220;-43
2023/03/06 03:58:58;;;;;;;53.17;26.17;;;;;;;;;;5036874;28;20618;-44
2023/03/06 04:01:30;;;;;;;50.67;25.17;;;;;;;;;;5053483;28;20219;-44
2023/03/06 04:03:58;;;;;;;52.00;25.57;;;;;;;;;;5053296;28;20294;-44
2023/03/06 04:06:26;;;;;;;53.43;26.27;;;;;;;;;;5053392;28;20203;-43
2023/03/06 04:08:53;;;;;;;46.43;24.70;;;;;;;;;;5036660;28;20207;-44
2023/03/06 04:11:21;;;;;;;46.43;24.70;;;;;;;;;;5036714;28;20238;-44
2023/03/06 04:13:48;;;;;;;48.77;24.67;;;;;;;;;;5053350;28;20626;-44
2023/03/06 04:16:16;;;;;;;54.83;26.50;;;;;;;;;;5036409;28;20235;-44
2023/03/06 04:18:43;;;;;;;63.03;30.60;;;;;;;;;;5052877;28;20231;-44
2023/03/06 04:21:10;;;;;;;60.87;29.87;;;;;;;;;;5053003;28;20266;-44
2023/03/06 04:23:37;;;;;;;56.10;29.53;;;;;;;;;;5036429;28;20200;-44
2023/03/06 04:26:06;;;;;;;56.73;26.27;;;;;;;;;;5036596;28;20214;-43
2023/03/06 04:28:33;;;;;;;53.10;26.33;;;;;;;;;;5053125;28;20204;-46
2023/03/06 04:31:00;;;;;;;54.00;26.00;;;;;;;;;;5063415;28;20626;-44
2023/03/06 04:33:29;;;;;;;46.23;24.73;;;;;;;;;;5087715;28;20202;-46
2023/03/06 04:35:57;;;;;;;46.10;24.23;;;;;;;;;;5089809;28;20199;-44
2023/03/06 04:38:28;;;;;;;46.77;25.30;;;;;;;;;;5089761;28;20191;-47
2023/03/06 04:40:55;;;;;;;51.63;24.87;;;;;;;;;;5090058;28;20218;-44
2023/03/06 04:43:22;;;;;;;46.87;24.80;;;;;;;;;;5091070;28;20206;-45
2023/03/06 04:45:50;;;;;;;180.90;82.30;;;;;;;;;;5088627;28;20517;-46
2023/03/06 04:48:17;;;;;;;99.30;50.13;;;;;;;;;;5084517;28;20207;-43
2023/03/06 04:50:45;;;;;;;67.77;35.40;;;;;;;;;;5090509;28;20198;-46
2023/03/06 04:53:13;;;;;;;100.53;52.47;;;;;;;;;;5085384;28;20203;-47
2023/03/06 04:55:41;;;;;;;75.60;40.60;;;;;;;;;;5090717;28;20268;-47
2023/03/06 04:58:10;;;;;;;71.07;36.73;;;;;;;;;;5090715;28;20520;-47
2023/03/06 05:00:37;;;;;;;54.77;28.60;;;;;;;;;;5093154;28;20203;-46
2023/03/06 05:03:04;;;;;;;101.47;47.17;;;;;;;;;;5079886;28;20218;-46
2023/03/06 05:05:32;;;;;;;60.87;34.13;;;;;;;;;;5083216;28;20215;-45
2023/03/06 05:07:59;;;;;;;54.40;28.77;;;;;;;;;;5074073;28;20215;-44
2023/03/06 05:10:26;;;;;;;61.30;30.70;;;;;;;;;;5074219;28;20245;-44
2023/03/06 05:12:53;;;;;;;77.73;37.07;;;;;;;;;;5073951;28;20203;-44
2023/03/06 05:15:21;;;;;;;65.43;32.83;;;;;;;;;;5076359;28;20203;-44
2023/03/06 05:17:48;;;;;;;60.13;28.90;;;;;;;;;;5082237;28;20247;-43
2023/03/06 05:20:15;;;;;;;57.63;29.83;;;;;;;;;;5073898;28;20211;-44
2023/03/06 05:22:43;;;;;;;58.77;28.73;;;;;;;;;;5073816;28;20211;-44
2023/03/06 05:25:10;;;;;;;54.10;28.07;;;;;;;;;;5073680;28;20223;-44
2023/03/06 05:27:38;;;;;;;53.27;28.10;;;;;;;;;;5074044;28;20203;-43
2023/03/06 05:30:06;;;;;;;52.13;26.23;;;;;;;;;;5072721;28;20211;-44
2023/03/06 05:32:33;;;;;;;52.63;26.97;;;;;;;;;;5074545;28;20203;-44
2023/03/06 05:35:03;;;;;;;55.20;26.97;;;;;;;;;;5077197;28;20200;-43
2023/03/06 05:37:30;;;;;;;61.73;36.27;;;;;;;;;;5077168;28;20318;-44
2023/03/06 05:39:58;;;;;;;57.43;29.23;;;;;;;;;;5076207;28;20207;-45
2023/03/06 05:42:26;;;;;;;51.20;26.03;;;;;;;;;;5076449;28;20214;-44
2023/03/06 05:44:54;;;;;;;49.37;26.03;;;;;;;;;;5077024;28;20212;-44
2023/03/06 05:47:21;;;;;;;46.93;25.47;;;;;;;;;;5076643;28;20211;-44
2023/03/06 05:49:49;;;;;;;49.60;25.80;;;;;;;;;;5075881;28;20208;-48
2023/03/06 05:52:16;;;;;;;51.83;24.87;;;;;;;;;;5075346;28;20195;-45
2023/03/06 05:54:43;;;;;;;56.33;24.87;;;;;;;;;;5075249;28;20583;-45
2023/03/06 05:57:10;;;;;;;58.33;24.90;;;;;;;;;;5075290;28;20254;-46
2023/03/06 05:59:38;;;;;;;46.83;24.90;;;;;;;;;;5080640;28;20645;-45
2023/03/06 06:02:05;;;;;;;51.57;25.97;;;;;;;;;;5095656;28;20637;-44
2023/03/06 06:04:32;;;;;;;56.03;27.00;;;;;;;;;;5096004;28;20263;-44
2023/03/06 06:07:00;;;;;;;48.50;26.30;;;;;;;;;;5097336;28;20211;-44
2023/03/06 06:09:28;;;;;;;51.37;26.10;;;;;;;;;;5097231;28;20659;-44
2023/03/06 06:11:58;;;;;;;51.73;26.37;;;;;;;;;;5097138;28;20207;-45
2023/03/06 06:14:26;;;;;;;81.37;41.73;;;;;;;;;;5097461;28;20210;-44
2023/03/06 06:16:54;;;;;;;58.10;25.70;;;;;;;;;;5096241;28;20250;-45
2023/03/06 06:19:22;;;;;;;56.13;26.73;;;;;;;;;;5095279;28;20510;-44
2023/03/06 06:21:53;;;;;;;51.70;26.13;;;;;;;;;;5096931;28;20282;-47
2023/03/06 06:24:23;;;;;;;50.33;25.17;;;;;;;;;;5096789;28;20191;-44
2023/03/06 06:26:51;;;;;;;53.10;26.23;;;;;;;;;;5097437;28;20263;-43
2023/03/06 06:29:19;;;;;;;56.30;27.83;;;;;;;;;;5097732;28;20222;-44
2023/03/06 06:31:46;;;;;;;58.83;27.57;;;;;;;;;;5096735;28;20281;-44
2023/03/06 06:34:14;;;;;;;55.50;27.53;;;;;;;;;;5097017;28;20206;-44
2023/03/06 06:36:41;;;;;;;46.73;25.33;;;;;;;;;;5096548;28;20646;-44
2023/03/06 06:39:10;;;;;;;52.97;25.30;;;;;;;;;;5096775;28;20264;-44
2023/03/06 06:41:37;;;;;;;52.80;24.70;;;;;;;;;;5096517;28;20206;-44
2023/03/06 06:44:24;;;;;;;49.20;24.37;;;;;;;;;;5096016;28;20202;-44
2023/03/06 06:46:51;;;;;;;50.60;25.43;;;;;;;;;;5096882;28;20218;-44
2023/03/06 06:49:39;;;;;;;49.07;24.33;;;;;;;;;;5097185;28;20203;-44
2023/03/06 06:52:06;;;;;;;66.67;30.57;;;;;;;;;;5096350;28;20210;-44
2023/03/06 06:54:33;;;;;;;93.17;39.13;;;;;;;;;;5096301;28;20648;-45
2023/03/06 06:57:00;;;;;;;83.73;38.83;;;;;;;;;;5096210;28;20226;-44
2023/03/06 06:59:28;;;;;;;52.67;28.23;;;;;;;;;;5096557;28;20198;-44
2023/03/06 07:01:55;;;;;;;57.43;29.67;;;;;;;;;;5096297;28;20226;-44
2023/03/06 07:04:22;;;;;;;48.67;26.10;;;;;;;;;;5096432;28;20199;-44
2023/03/06 07:06:49;;;;;;;54.73;26.00;;;;;;;;;;5096396;28;20206;-44
2023/03/06 07:09:16;;;;;;;58.77;28.13;;;;;;;;;;5096264;28;20597;-45
2023/03/06 07:11:43;;;;;;;58.37;26.33;;;;;;;;;;5096244;28;20573;-44
2023/03/06 07:14:11;;;;;;;54.67;26.20;;;;;;;;;;5095957;28;20518;-44
2023/03/06 07:16:38;;;;;;;51.77;27.10;;;;;;;;;;5096153;28;20226;-46
2023/03/06 07:19:06;;;;;;;54.63;26.67;;;;;;;;;;5095909;28;20715;-46
2023/03/06 07:21:33;;;;;;;57.43;26.50;;;;;;;;;;5095957;28;20302;-44
2023/03/06 07:24:00;;;;;;;48.10;25.93;;;;;;;;;;5096076;28;20213;-45
2023/03/06 07:26:27;;;;;;;58.47;30.53;;;;;;;;;;5095988;28;20268;-44
2023/03/06 07:28:55;;;;;;;58.80;28.23;;;;;;;;;;5095970;28;20199;-44
2023/03/06 07:31:25;;;;;;;63.77;27.47;;;;;;;;;;5095648;28;20202;-44
2023/03/06 07:33:53;;;;;;;57.07;28.23;;;;;;;;;;5096008;28;20524;-44
2023/03/06 07:36:22;;;;;;;51.90;27.60;;;;;;;;;;5095540;28;20210;-45
2023/03/06 07:38:49;;;;;;;57.63;29.07;;;;;;;;;;5095394;28;20256;-44
2023/03/06 07:41:17;;;;;;;63.20;28.20;;;;;;;;;;5095719;28;20214;-44
2023/03/06 07:43:49;;;;;;;53.03;25.67;;;;;;;;;;5094757;28;20263;-44
2023/03/06 07:46:16;;;;;;;50.40;25.93;;;;;;;;;;5095471;28;20213;-45
2023/03/06 07:48:43;;;;;;;61.50;26.93;;;;;;;;;;5095281;28;20597;-45
2023/03/06 07:51:20;;;;;;;55.07;26.10;;;;;;;;;;5095333;28;20655;-45
2023/03/06 07:53:48;;;;;;;54.80;28.40;;;;;;;;;;5095360;28;20271;-44
2023/03/06 07:56:15;;;;;;;59.30;30.30;;;;;;;;;;5094923;28;20199;-44
2023/03/06 07:58:44;;;;;;;54.03;24.03;;;;;;;;;;5094531;28;20218;-44
2023/03/06 08:01:16;;;;;;;53.70;24.10;;;;;;;;;;5095104;28;20198;-44
2023/03/06 08:03:44;;;;;;;54.90;24.93;;;;;;;;;;5095243;28;20202;-44
2023/03/06 08:06:16;;;;;;;43.13;21.30;;;;;;;;;;5095340;28;20199;-45
2023/03/06 08:08:45;;;;;;;45.27;21.93;;;;;;;;;;5094701;28;20527;-45
2023/03/06 08:11:14;;;;;;;43.50;21.43;;;;;;;;;;5095258;28;20195;-45
2023/03/06 08:13:41;;;;;;;42.00;21.90;;;;;;;;;;5095101;28;20210;-44
2023/03/06 08:16:09;;;;;;;41.17;20.33;;;;;;;;;;5094864;28;20198;-45
2023/03/06 08:18:38;;;;;;;39.97;20.43;;;;;;;;;;5094845;28;20245;-45
2023/03/06 08:21:07;;;;;;;36.90;18.60;;;;;;;;;;5094779;28;20202;-44
2023/03/06 08:23:35;;;;;;;44.77;22.63;;;;;;;;;;5095204;28;20516;-44
2023/03/06 08:26:09;;;;;;;43.97;21.20;;;;;;;;;;5095017;28;20507;-44
2023/03/06 08:28:36;;;;;;;39.67;20.37;;;;;;;;;;5093952;28;20228;-45
2023/03/06 08:31:12;;;;;;;42.87;19.60;;;;;;;;;;5094944;28;20207;-44
2023/03/06 08:33:39;;;;;;;46.17;20.37;;;;;;;;;;5094900;28;20211;-45
2023/03/06 08:36:07;;;;;;;45.90;21.97;;;;;;;;;;5094752;28;20749;-45
2023/03/06 08:38:34;;;;;;;37.23;17.97;;;;;;;;;;5094926;28;20260;-44
2023/03/06 08:41:01;;;;;;;39.00;19.00;;;;;;;;;;5094774;28;20271;-44
2023/03/06 08:43:28;;;;;;;38.50;17.77;;;;;;;;;;5094662;28;20625;-44
2023/03/06 08:45:56;;;;;;;43.90;21.73;;;;;;;;;;5095087;28;20260;-44
2023/03/06 08:48:24;;;;;;;50.90;24.60;;;;;;;;;;5094987;28;20198;-45
2023/03/06 08:50:51;;;;;;;35.67;18.93;;;;;;;;;;5094662;28;20637;-45
2023/03/06 08:53:18;;;;;;;43.03;19.80;;;;;;;;;;5094525;28;20199;-46
2023/03/06 08:55:47;;;;;;;34.50;17.03;;;;;;;;;;5094518;28;20199;-45
2023/03/06 08:58:14;;;;;;;35.57;17.13;;;;;;;;;;5094423;28;20573;-46
2023/03/06 09:00:41;;;;;;;38.97;17.30;;;;;;;;;;5094719;28;20276;-45
2023/03/06 09:03:09;;;;;;;33.20;16.60;;;;;;;;;;5094562;28;20199;-45
2023/03/06 09:05:39;;;;;;;30.93;16.17;;;;;;;;;;5094589;28;20213;-44
2023/03/06 09:08:06;;;;;;;34.17;16.77;;;;;;;;;;5097747;28;20228;-44
2023/03/06 09:10:33;;;;;;;39.27;18.93;;;;;;;;;;5098618;28;20229;-44
2023/03/06 09:13:01;;;;;;;34.53;18.73;;;;;;;;;;5098618;28;20198;-45
2023/03/06 09:15:28;;;;;;;29.90;15.50;;;;;;;;;;5098349;28;20213;-44
2023/03/06 09:17:55;;;;;;;30.90;15.43;;;;;;;;;;5098353;28;20238;-45
2023/03/06 09:20:22;;;;;;;34.33;16.00;;;;;;;;;;5098556;28;20198;-44
2023/03/06 09:22:50;;;;;;;33.23;15.80;;;;;;;;;;5098380;28;20206;-44
2023/03/06 09:25:19;;;;;;;30.63;13.30;;;;;;;;;;5098969;28;20256;-45
2023/03/06 09:27:47;;;;;;;28.13;15.10;;;;;;;;;;5098214;28;20214;-44
2023/03/06 09:30:31;;;;;;;29.70;13.97;;;;;;;;;;5098413;28;20273;-45
2023/03/06 09:32:58;;;;;;;26.30;14.13;;;;;;;;;;5098114;28;20203;-45
2023/03/06 09:35:25;;;;;;;30.57;16.57;;;;;;;;;;5098133;28;20644;-45
2023/03/06 09:37:53;;;;;;;37.60;21.30;;;;;;;;;;5098465;28;20238;-45
2023/03/06 09:40:48;;;;;;;35.97;17.47;;;;;;;;;;5097684;28;20206;-46
2023/03/06 09:43:24;;;;;;;34.27;16.63;;;;;;;;;;5078801;28;20207;-46
2023/03/06 09:45:52;;;;;;;28.87;14.60;;;;;;;;;;5097618;28;20190;-44
2023/03/06 09:48:21;;;;;;;38.50;17.80;;;;;;;;;;5096740;28;20217;-44
2023/03/06 09:51:01;;;;;;;34.43;17.53;;;;;;;;;;5097215;28;20199;-44
2023/03/06 09:53:53;;;;;;;37.50;16.73;;;;;;;;;;5097061;28;20198;-45
2023/03/06 09:56:22;;;;;;;29.63;15.17;;;;;;;;;;5097774;28;20237;-44
2023/03/06 10:02:49;;;;;;;32.70;17.43;;;;;;;;;;5097693;28;20293;-45
2023/03/06 10:05:25;;;;;;;26.47;12.83;;;;;;;;;;5096973;28;20198;-44
2023/03/06 10:08:00;;;;;;;26.27;11.50;;;;;;;;;;5096948;28;20217;-45
2023/03/06 10:10:39;;;;;;;19.67;10.30;;;;;;;;;;5096618;28;20198;-44
2023/03/06 10:13:19;;;;;;;18.83;9.50;;;;;;;;;;5096874;28;20213;-45
2023/03/06 10:15:47;;;;;;;18.83;9.33;;;;;;;;;;5096937;28;20206;-44
2023/03/06 10:18:14;;;;;;;16.83;8.07;;;;;;;;;;5096279;28;20242;-45
2023/03/06 10:20:53;;;;;;;43.07;21.70;;;;;;;;;;5097303;28;20207;-45
2023/03/06 10:23:56;;;;;;;29.07;14.80;;;;;;;;;;5096119;28;20198;-45
2023/03/06 10:26:26;;;;;;;25.37;13.10;;;;;;;;;;5097327;28;20210;-45
2023/03/06 10:29:01;;;;;;;30.93;18.40;;;;;;;;;;5096380;28;20203;-44
2023/03/06 10:31:28;;;;;;;20.27;10.67;;;;;;;;;;5097124;28;20183;-44
2023/03/06 10:34:05;;;;;;;16.70;9.03;;;;;;;;;;5096183;28;20202;-45
2023/03/06 10:36:32;;;;;;;24.00;9.87;;;;;;;;;;5097142;28;20263;-45
2023/03/06 10:38:59;;;;;;;17.63;9.40;;;;;;;;;;5096928;28;20223;-45
2023/03/06 10:41:29;;;;;;;25.00;11.33;;;;;;;;;;5095697;28;20633;-45
2023/03/06 10:43:59;;;;;;;26.07;10.10;;;;;;;;;;5096799;28;20264;-45
2023/03/06 10:46:28;;;;;;;23.93;10.13;;;;;;;;;;5096565;28;20183;-45
2023/03/06 10:49:00;;;;;;;19.67;10.37;;;;;;;;;;5096441;28;20549;-45
2023/03/06 10:51:29;;;;;;;21.80;12.23;;;;;;;;;;5096487;28;20746;-45
2023/03/06 10:53:56;;;;;;;38.17;18.33;;;;;;;;;;5095492;28;20577;-45
2023/03/06 10:56:31;;;;;;;22.93;13.83;;;;;;;;;;5096398;28;20206;-45
2023/03/06 10:59:08;;;;;;;24.17;13.17;;;;;;;;;;5096335;28;20683;-45
2023/03/06 11:01:35;;;;;;;30.53;16.37;;;;;;;;;;5096219;28;20195;-45
2023/03/06 11:04:24;;;;;;;25.90;12.37;;;;;;;;;;5096599;28;20271;-45
2023/03/06 11:07:10;;;;;;;21.77;12.47;;;;;;;;;;5096128;28;20210;-44
2023/03/06 11:09:38;;;;;;;27.83;15.07;;;;;;;;;;5095994;28;20230;-45
2023/03/06 11:12:22;;;;;;;35.57;17.77;;;;;;;;;;5096083;28;20203;-44
2023/03/06 11:15:16;;;;;;;27.20;15.20;;;;;;;;;;5096040;28;20231;-45
2023/03/06 11:17:59;;;;;;;41.17;22.10;;;;;;;;;;5095489;28;20202;-45
2023/03/06 11:20:41;;;;;;;40.90;20.87;;;;;;;;;;5095984;28;20648;-45
2023/03/06 11:23:34;;;;;;;34.87;18.00;;;;;;;;;;5096168;28;20199;-44
2023/03/06 11:26:16;;;;;;;31.57;18.50;;;;;;;;;;5095775;28;20209;-46
2023/03/06 11:29:21;;;;;;;41.43;21.03;;;;;;;;;;5096152;28;20275;-44
2023/03/06 11:31:53;;;;;;;39.63;18.67;;;;;;;;;;5095828;28;20198;-45
2023/03/06 11:34:30;;;;;;;40.50;18.17;;;;;;;;;;5095767;28;20240;-45
2023/03/06 11:37:42;;;;;;;34.13;18.77;;;;;;;;;;5095898;28;20209;-44
2023/03/06 11:40:09;;;;;;;27.43;15.33;;;;;;;;;;5085508;28;20198;-44
2023/03/06 11:42:55;;;;;;;35.07;16.83;;;;;;;;;;5095422;28;20213;-44
2023/03/06 11:45:26;;;;;;;31.07;17.30;;;;;;;;;;5094584;28;20602;-45
2023/03/06 11:48:16;;;;;;;74.10;30.90;;;;;;;;;;5095134;28;20198;-45
2023/03/06 11:50:51;;;;;;;66.70;33.40;;;;;;;;;;5095331;28;20207;-45
2023/03/06 11:53:35;;;;;;;44.43;22.33;;;;;;;;;;5094505;28;20209;-45
2023/03/06 11:56:29;;;;;;;35.43;17.40;;;;;;;;;;5094394;28;20633;-45
2023/03/06 11:59:16;;;;;;;30.57;16.27;;;;;;;;;;5094467;28;20229;-44
2023/03/06 12:02:14;;;;;;;30.50;16.20;;;;;;;;;;5095473;28;20194;-45
2023/03/06 12:05:05;;;;;;;32.53;15.37;;;;;;;;;;5095378;28;20213;-46
2023/03/06 12:07:35;;;;;;;30.27;15.97;;;;;;;;;;5094242;28;20198;-45
2023/03/06 12:10:23;;;;;;;34.30;16.70;;;;;;;;;;5094436;28;20232;-45
2023/03/06 12:13:09;;;;;;;25.50;15.37;;;;;;;;;;5094351;28;20207;-45
2023/03/06 12:16:13;;;;;;;33.33;16.67;;;;;;;;;;5095201;28;20209;-45
2023/03/06 12:19:05;;;;;;;36.40;19.43;;;;;;;;;;5094920;28;20323;-45
2023/03/06 12:21:49;;;;;;;30.83;16.57;;;;;;;;;;5095182;28;20221;-45
2023/03/06 12:24:47;;;;;;;31.13;17.37;;;;;;;;;;5095287;28;20198;-45
2023/03/06 12:27:21;;;;;;;30.67;16.20;;;;;;;;;;5095391;28;20198;-45
2023/03/06 12:30:04;;;;;;;32.10;15.20;;;;;;;;;;5094063;28;20210;-45
2023/03/06 12:32:40;;;;;;;27.80;15.60;;;;;;;;;;5095238;28;20202;-45
2023/03/06 12:35:26;;;;;;;36.77;18.07;;;;;;;;;;5094812;28;20202;-45
2023/03/06 12:38:06;;;;;;;33.57;17.13;;;;;;;;;;5094855;28;20210;-45
2023/03/06 12:40:54;;;;;;;34.47;18.50;;;;;;;;;;5094217;28;20494;-45
2023/03/06 12:43:42;;;;;;;37.13;20.13;;;;;;;;;;5098421;28;20243;-46
2023/03/06 12:46:15;;;;;;;43.13;23.50;;;;;;;;;;5099077;28;20202;-45
2023/03/06 12:48:47;;;;;;;25.13;16.13;;;;;;;;;;5098032;28;20640;-45
2023/03/06 12:51:17;;;;;;;31.93;18.00;;;;;;;;;;5098824;28;20248;-46
2023/03/06 12:53:44;;;;;;;29.63;16.73;;;;;;;;;;5096222;28;20660;-45
2023/03/06 12:56:13;;;;;;;28.60;14.87;;;;;;;;;;5096702;28;20652;-46
2023/03/06 12:59:02;;;;;;;22.83;12.63;;;;;;;;;;5097652;28;20226;-45
2023/03/06 13:02:00;;;;;;;23.20;13.23;;;;;;;;;;5098651;28;20256;-45
2023/03/06 13:05:04;;;;;;;36.17;17.17;;;;;;;;;;5097817;28;20220;-46
2023/03/06 13:08:14;;;;;;;31.87;15.93;;;;;;;;;;5098040;28;20598;-46
2023/03/06 13:10:42;;;;;;;31.63;18.07;;;;;;;;;;5098405;28;20198;-45
2023/03/06 13:13:30;;;;;;;87.53;42.40;;;;;;;;;;5098562;28;20213;-46
2023/03/06 13:16:09;;;;;;;42.70;27.43;;;;;;;;;;5097463;28;20263;-45
2023/03/06 13:18:36;;;;;;;30.97;17.87;;;;;;;;;;5098211;28;20238;-45
2023/03/06 13:21:04;;;;;;;29.63;17.23;;;;;;;;;;5098391;28;20203;-44
2023/03/06 13:23:31;;;;;;;37.40;18.90;;;;;;;;;;5097998;28;20213;-44
2023/03/06 13:26:00;;;;;;;37.23;19.13;;;;;;;;;;5098058;28;20199;-45
2023/03/06 13:28:37;;;;;;;30.63;18.67;;;;;;;;;;5097088;28;20206;-46
2023/03/06 13:31:05;;;;;;;38.07;19.20;;;;;;;;;;5098202;28;20202;-45
2023/03/06 13:33:59;;;;;;;35.57;18.87;;;;;;;;;;5097521;28;20224;-45
2023/03/06 13:36:34;;;;;;;33.43;18.13;;;;;;;;;;5095648;28;20528;-46
2023/03/06 13:39:09;;;;;;;35.27;20.33;;;;;;;;;;5097248;28;20214;-45
2023/03/06 13:41:53;;;;;;;52.17;25.60;;;;;;;;;;5097190;28;20270;-46
2023/03/06 13:44:23;;;;;;;60.50;31.97;;;;;;;;;;5097209;28;20248;-44
2023/03/06 13:47:17;;;;;;;73.77;38.70;;;;;;;;;;5097469;28;20194;-45
2023/03/06 13:49:45;;;;;;;44.60;22.67;;;;;;;;;;5073380;28;20206;-45
2023/03/06 13:52:31;;;;;;;59.87;24.73;;;;;;;;;;5093595;28;20259;-46
2023/03/06 13:54:58;;;;;;;35.97;19.53;;;;;;;;;;5096043;28;20191;-46
2023/03/06 13:57:28;;;;;;;36.77;19.70;;;;;;;;;;5094422;28;20214;-46
2023/03/06 14:00:34;;;;;;;32.30;17.43;;;;;;;;;;5082507;28;20214;-46
2023/03/06 14:03:19;;;;;;;40.07;18.53;;;;;;;;;;5092113;28;20198;-46
2023/03/06 14:05:49;;;;;;;34.03;17.93;;;;;;;;;;5079602;28;20187;-48
2023/03/06 14:08:30;;;;;;;49.70;20.57;;;;;;;;;;5078531;28;20297;-45
2023/03/06 14:11:03;;;;;;;93.27;39.00;;;;;;;;;;5078821;28;20529;-47
2023/03/06 14:13:37;;;;;;;156.00;74.73;;;;;;;;;;5109475;28;20605;-45
2023/03/06 14:16:23;;;;;;;34.27;21.40;;;;;;;;;;5089538;28;20199;-46
2023/03/06 14:18:53;;;;;;;41.37;23.07;;;;;;;;;;5091303;28;20265;-48
2023/03/06 14:21:30;;;;;;;87.23;49.10;;;;;;;;;;5096298;28;20648;-46
2023/03/06 14:24:03;;;;;;;271.23;155.27;;;;;;;;;;5096597;28;20298;-45
2023/03/06 14:26:32;;;;;;;730.40;404.07;;;;;;;;;;5096247;28;20506;-47
2023/03/06 14:29:02;;;;;;;1221.03;675.03;;;;;;;;;;5095361;28;20202;-45
2023/03/06 14:31:36;;;;;;;1107.33;627.17;;;;;;;;;;5079407;28;20205;-50
2023/03/06 14:34:13;;;;;;;1273.53;698.10;;;;;;;;;;5089944;28;20199;-45
2023/03/06 14:36:46;;;;;;;1246.70;707.37;;;;;;;;;;5090109;28;20526;-45
2023/03/06 14:39:34;;;;;;;1981.87;871.07;;;;;;;;;;5094130;28;20313;-49
2023/03/06 14:42:19;;;;;;;1992.00;866.23;;;;;;;;;;5083700;28;20198;-44
2023/03/06 14:44:47;;;;;;;1689.83;798.23;;;;;;;;;;5085883;28;20202;-45
2023/03/06 14:47:25;;;;;;;1818.13;829.80;;;;;;;;;;5090749;28;20200;-45
2023/03/06 14:50:20;;;;;;;475.67;175.40;;;;;;;;;;5095930;28;20199;-45